Time;durP1;ratioP1;P1;durP2;ratioP2;P2;SDS_P1;SDS_P2;PMS_P1;PMS_P2;Temp;Humidity;BMP_temperature;BMP_pressure;BME280_temperature;BME280_humidity;BME280_pressure;Samples;Min_cycle;Max_cycle;Signal;HPM_P1;HPM_P2
2022/07/18 00:01:19;;;;;;;5.10;4.63;;;;;;;;;;4947166;28;20123;-76
2022/07/18 00:04:13;;;;;;;6.00;4.85;;;;;;;;;;4955597;28;20051;-76
2022/07/18 00:07:10;;;;;;;;;;;;;;;;;;;;;
2022/07/18 00:10:18;;;;;;;5.78;5.18;;;;;;;;;;4953707;28;20047;-76
2022/07/18 00:13:03;;;;;;;6.25;5.07;;;;;;;;;;4955019;28;20043;-76
2022/07/18 00:19:00;;;;;;;6.13;5.40;;;;;;;;;;4955729;29;20528;-77
2022/07/18 00:24:31;;;;;;;6.10;5.45;;;;;;;;;;4953937;29;20502;-76
2022/07/18 00:27:38;;;;;;;6.60;5.25;;;;;;;;;;4954280;29;20043;-76
2022/07/18 00:30:20;;;;;;;6.13;4.90;;;;;;;;;;4937589;29;20443;-76
2022/07/18 00:33:14;;;;;;;6.25;5.28;;;;;;;;;;4953907;29;20051;-77
2022/07/18 00:35:48;;;;;;;6.03;5.53;;;;;;;;;;4954584;29;20043;-76
2022/07/18 00:38:24;;;;;;;5.95;5.35;;;;;;;;;;4937681;28;20050;-76
2022/07/18 00:41:06;;;;;;;5.70;5.20;;;;;;;;;;4938910;29;20058;-76
2022/07/18 00:46:49;;;;;;;;;;;;;;;;;;;;;
2022/07/18 00:58:20;;;;;;;6.15;5.55;;;;;;;;;;4926095;29;20036;-76
2022/07/18 01:04:12;;;;;;;;;;;;;;;;;;;;;
2022/07/18 01:06:46;;;;;;;6.18;5.32;;;;;;;;;;4955442;29;20490;-76
2022/07/18 01:09:33;;;;;;;5.85;5.25;;;;;;;;;;4955875;28;20039;-76
2022/07/18 01:12:08;;;;;;;6.55;5.45;;;;;;;;;;4972731;28;20374;-76
2022/07/18 01:14:43;;;;;;;7.07;5.65;;;;;;;;;;4972678;28;20081;-76
2022/07/18 01:20:36;;;;;;;5.80;5.30;;;;;;;;;;4976161;28;20135;-76
2022/07/18 01:23:26;;;;;;;;;;;;;;;;;;;;;
2022/07/18 01:26:06;;;;;;;5.38;4.93;;;;;;;;;;4968266;28;20409;-76
2022/07/18 01:28:34;;;;;;;6.10;5.43;;;;;;;;;;4976138;28;20517;-76
2022/07/18 01:31:08;;;;;;;5.22;4.72;;;;;;;;;;4975516;28;20034;-76
2022/07/18 01:33:46;;;;;;;6.05;5.03;;;;;;;;;;4976187;28;20047;-76
2022/07/18 01:36:29;;;;;;;5.32;4.75;;;;;;;;;;4975880;28;20062;-76
2022/07/18 01:39:07;;;;;;;5.65;5.10;;;;;;;;;;4975838;28;20105;-76
2022/07/18 01:41:52;;;;;;;6.78;5.28;;;;;;;;;;4976567;28;20430;-76
2022/07/18 01:44:30;;;;;;;6.75;5.88;;;;;;;;;;4959361;28;20114;-76
2022/07/18 01:47:17;;;;;;;5.90;5.32;;;;;;;;;;4958963;29;20054;-76
2022/07/18 01:49:59;;;;;;;6.43;5.82;;;;;;;;;;4958882;28;20039;-76
2022/07/18 01:52:28;;;;;;;6.95;5.78;;;;;;;;;;4958651;29;20435;-76
2022/07/18 02:01:29;;;;;;;;;;;;;;;;;;;;;
2022/07/18 02:04:18;;;;;;;6.25;5.65;;;;;;;;;;4958813;29;20061;-76
2022/07/18 02:09:58;;;;;;;5.70;5.20;;;;;;;;;;4958358;29;20039;-76
2022/07/18 02:16:10;;;;;;;5.75;5.30;;;;;;;;;;4957778;28;20039;-75
2022/07/18 02:18:55;;;;;;;6.75;5.90;;;;;;;;;;4958283;29;20368;-76
2022/07/18 02:24:53;;;;;;;5.90;5.32;;;;;;;;;;4955852;28;20046;-76
2022/07/18 02:27:42;;;;;;;5.60;5.10;;;;;;;;;;4959146;29;20047;-76
2022/07/18 02:30:26;;;;;;;;;;;;;;;;;;;;;
2022/07/18 02:33:07;;;;;;;5.93;5.43;;;;;;;;;;4957830;29;20409;-76
2022/07/18 02:36:03;;;;;;;5.40;4.93;;;;;;;;;;4958565;28;20039;-76
2022/07/18 02:38:54;;;;;;;;;;;;;;;;;;;;;
2022/07/18 02:41:34;;;;;;;5.93;5.32;;;;;;;;;;4958576;29;20036;-76
2022/07/18 02:44:08;;;;;;;5.57;5.07;;;;;;;;;;4957962;29;20482;-76
2022/07/18 02:46:50;;;;;;;5.68;5.18;;;;;;;;;;4957778;29;20114;-76
2022/07/18 02:52:50;;;;;;;7.57;5.20;;;;;;;;;;4936350;29;20039;-76
2022/07/18 02:55:31;;;;;;;7.68;5.63;;;;;;;;;;4936673;29;20062;-76
2022/07/18 02:58:33;;;;;;;;;;;;;;;;;;;;;
2022/07/18 03:04:56;;;;;;;5.95;5.45;;;;;;;;;;4879207;29;20029;-76
2022/07/18 03:15:01;;;;;;;5.60;5.10;;;;;;;;;;4859926;29;20045;-76
2022/07/18 03:18:02;;;;;;;7.57;5.45;;;;;;;;;;4896805;29;20040;-75
2022/07/18 03:24:04;;;;;;;;;;;;;;;;;;;;;
2022/07/18 03:27:05;;;;;;;7.53;5.68;;;;;;;;;;4907852;29;20044;-75
2022/07/18 03:32:57;;;;;;;5.20;4.70;;;;;;;;;;4917920;29;20047;-76
2022/07/18 03:35:55;;;;;;;5.65;5.03;;;;;;;;;;4919915;29;20048;-75
2022/07/18 03:39:18;;;;;;;;;;;;;;;;;;;;;
2022/07/18 03:45:14;;;;;;;5.50;5.00;;;;;;;;;;4917960;29;20047;-75
2022/07/18 03:51:13;;;;;;;6.05;5.30;;;;;;;;;;4918415;29;20035;-75
2022/07/18 04:00:57;;;;;;;5.78;5.18;;;;;;;;;;4954046;28;20058;-76
2022/07/18 04:04:06;;;;;;;;;;;;;;;;;;;;;
2022/07/18 04:10:19;;;;;;;5.70;5.20;;;;;;;;;;4954077;29;20178;-75
2022/07/18 04:13:19;;;;;;;8.02;4.97;;;;;;;;;;4893026;29;20055;-75
2022/07/18 04:16:08;;;;;;;5.72;5.30;;;;;;;;;;4868248;29;20051;-75
2022/07/18 04:18:47;;;;;;;5.35;4.95;;;;;;;;;;4878394;29;20041;-75
2022/07/18 04:24:43;;;;;;;;;;;;;;;;;;;;;
2022/07/18 04:33:45;;;;;;;5.72;5.22;;;;;;;;;;4953679;28;20462;-76
2022/07/18 04:45:04;;;;;;;6.45;4.95;;;;;;;;;;5597801;23;19925;-75
2022/07/18 04:51:10;;;;;;;7.07;5.28;;;;;;;;;;5006021;28;20085;-75
2022/07/18 04:53:54;;;;;;;;;;;;;;;;;;;;;
2022/07/18 04:56:41;;;;;;;;;;;;;;;;;;;;;
2022/07/18 04:59:36;;;;;;;;;;;;;;;;;;;;;
2022/07/18 05:05:29;;;;;;;5.78;5.28;;;;;;;;;;4937651;29;20039;-75
2022/07/18 05:08:27;;;;;;;5.43;4.63;;;;;;;;;;5006672;28;20076;-75
2022/07/18 05:11:23;;;;;;;;;;;;;;;;;;;;;
2022/07/18 05:17:34;;;;;;;;;;;;;;;;;;;;;
2022/07/18 05:21:34;;;;;;;5.15;4.75;;;;;;;;;;5017859;28;20045;-74
2022/07/18 05:24:16;;;;;;;5.53;4.95;;;;;;;;;;4999900;28;20048;-75
2022/07/18 05:27:08;;;;;;;5.05;4.65;;;;;;;;;;5016875;28;20042;-74
2022/07/18 05:32:54;;;;;;;6.40;5.75;;;;;;;;;;5017131;28;20041;-74
2022/07/18 05:38:52;;;;;;;;;;;;;;;;;;;;;
2022/07/18 05:51:59;;;;;;;4.90;4.38;;;;;;;;;;4892934;29;20040;-74
2022/07/18 05:54:54;;;;;;;;;;;;;;;;;;;;;
2022/07/18 05:57:55;;;;;;;7.07;4.10;;;;;;;;;;4917689;29;20036;-74
2022/07/18 06:01:02;;;;;;;;;;;;;;;;;;;;;
2022/07/18 06:04:16;;;;;;;;;;;;;;;;;;;;;
2022/07/18 06:10:28;;;;;;;5.25;3.38;;;;;;;;;;4907393;29;20035;-75
2022/07/18 06:13:04;;;;;;;8.55;4.15;;;;;;;;;;5013088;28;20045;-75
2022/07/18 06:18:45;;;;;;;7.93;4.63;;;;;;;;;;5009546;28;20114;-75
2022/07/18 06:21:31;;;;;;;5.47;4.97;;;;;;;;;;5016547;28;20038;-75
2022/07/18 06:30:14;;;;;;;8.13;4.00;;;;;;;;;;5016448;28;20452;-75
2022/07/18 06:32:52;;;;;;;6.15;3.83;;;;;;;;;;5016356;28;20539;-75
2022/07/18 06:35:37;;;;;;;5.85;3.90;;;;;;;;;;5016230;28;20041;-76
2022/07/18 06:38:06;;;;;;;4.93;3.28;;;;;;;;;;5016971;28;20080;-75
2022/07/18 06:41:00;;;;;;;3.80;3.50;;;;;;;;;;5016152;28;20552;-75
2022/07/18 06:43:31;;;;;;;3.95;3.20;;;;;;;;;;5015195;28;20056;-76
2022/07/18 06:46:20;;;;;;;4.88;3.08;;;;;;;;;;5015325;28;20060;-76
2022/07/18 06:48:46;;;;;;;3.95;3.40;;;;;;;;;;5016444;28;20041;-76
2022/07/18 06:51:20;;;;;;;3.50;3.30;;;;;;;;;;5016133;28;20488;-76
2022/07/18 06:53:55;;;;;;;6.65;3.22;;;;;;;;;;5015996;28;20488;-76
2022/07/18 06:56:25;;;;;;;5.45;3.03;;;;;;;;;;5016060;28;20037;-76
2022/07/18 06:58:53;;;;;;;5.47;3.00;;;;;;;;;;5014208;28;20041;-76
2022/07/18 07:01:21;;;;;;;5.30;3.08;;;;;;;;;;5015916;28;20384;-76
2022/07/18 07:03:47;;;;;;;6.13;3.13;;;;;;;;;;5014560;28;20041;-74
2022/07/18 07:06:15;;;;;;;6.13;2.75;;;;;;;;;;5018153;28;20102;-74
2022/07/18 07:08:47;;;;;;;9.57;3.22;;;;;;;;;;5015284;28;20041;-76
2022/07/18 07:11:14;;;;;;;8.82;3.50;;;;;;;;;;5015917;28;20107;-80
2022/07/18 07:13:40;;;;;;;10.75;3.42;;;;;;;;;;5015482;28;20037;-77
2022/07/18 07:16:12;;;;;;;7.13;3.38;;;;;;;;;;5014123;28;20045;-76
2022/07/18 07:19:01;;;;;;;5.20;3.13;;;;;;;;;;5014725;28;20034;-77
2022/07/18 07:21:28;;;;;;;9.63;3.13;;;;;;;;;;4997704;28;20042;-76
2022/07/18 07:23:54;;;;;;;11.20;3.50;;;;;;;;;;5014907;28;20042;-77
2022/07/18 07:35:57;;;;;;;14.32;3.92;;;;;;;;;;4994567;28;20120;-73
2022/07/18 07:38:27;;;;;;;18.70;4.72;;;;;;;;;;5004743;28;20615;-74
2022/07/18 07:40:54;;;;;;;11.93;3.78;;;;;;;;;;4997352;28;20135;-75
2022/07/18 07:43:20;;;;;;;10.07;3.70;;;;;;;;;;5015289;28;20053;-75
2022/07/18 07:46:10;;;;;;;11.23;3.38;;;;;;;;;;5014672;28;20137;-76
2022/07/18 07:52:11;;;;;;;11.43;3.97;;;;;;;;;;4953254;29;20385;-75
2022/07/18 08:10:48;;;;;;;6.07;3.20;;;;;;;;;;4820988;29;20494;-75
2022/07/18 08:13:46;;;;;;;5.93;3.15;;;;;;;;;;4837630;29;20497;-76
2022/07/18 08:16:24;;;;;;;5.70;3.33;;;;;;;;;;4855771;29;20074;-75
2022/07/18 08:18:53;;;;;;;5.18;3.20;;;;;;;;;;4910758;29;20051;-75
2022/07/18 08:22:07;;;;;;;8.98;3.85;;;;;;;;;;4912334;29;20176;-75
2022/07/18 08:24:33;;;;;;;4.38;2.80;;;;;;;;;;4879069;29;20044;-74
2022/07/18 08:26:59;;;;;;;4.00;3.00;;;;;;;;;;4971396;28;20081;-74
2022/07/18 08:29:25;;;;;;;3.97;2.70;;;;;;;;;;5018029;28;20084;-74
2022/07/18 08:31:51;;;;;;;5.38;2.72;;;;;;;;;;5017547;28;20037;-74
2022/07/18 08:34:26;;;;;;;3.05;2.78;;;;;;;;;;5016378;28;20073;-74
2022/07/18 08:36:52;;;;;;;4.00;3.00;;;;;;;;;;5014603;28;20053;-75
2022/07/18 08:39:19;;;;;;;5.50;3.28;;;;;;;;;;5017052;28;20034;-75
2022/07/18 08:41:48;;;;;;;3.35;2.90;;;;;;;;;;5018231;28;20037;-75
2022/07/18 08:44:14;;;;;;;3.28;2.63;;;;;;;;;;5018919;28;20042;-76
2022/07/18 08:46:41;;;;;;;4.72;3.33;;;;;;;;;;5018352;28;20064;-75
2022/07/18 08:49:07;;;;;;;7.50;3.10;;;;;;;;;;5017218;28;20042;-74
2022/07/18 08:51:37;;;;;;;4.78;2.80;;;;;;;;;;5017756;28;20050;-74
2022/07/18 08:54:03;;;;;;;3.92;3.35;;;;;;;;;;5018377;28;20132;-75
2022/07/18 08:56:29;;;;;;;6.80;3.72;;;;;;;;;;5017766;28;20040;-75
2022/07/18 08:58:55;;;;;;;3.20;2.92;;;;;;;;;;5017552;28;21245;-75
2022/07/18 09:01:21;;;;;;;12.57;3.97;;;;;;;;;;5012736;28;20407;-75
2022/07/18 09:04:14;;;;;;;5.43;3.60;;;;;;;;;;5037587;28;20120;-75
2022/07/18 09:06:47;;;;;;;3.65;3.25;;;;;;;;;;5019777;28;20423;-73
2022/07/18 09:09:14;;;;;;;10.02;3.70;;;;;;;;;;5017734;28;20566;-72
2022/07/18 09:11:56;;;;;;;7.50;3.50;;;;;;;;;;5016963;28;20124;-72
2022/07/18 09:14:29;;;;;;;5.13;3.50;;;;;;;;;;5017696;28;20092;-72
2022/07/18 09:17:02;;;;;;;12.00;3.50;;;;;;;;;;5017736;28;20092;-72
2022/07/18 09:19:29;;;;;;;5.30;3.38;;;;;;;;;;5017082;28;20034;-72
2022/07/18 09:21:55;;;;;;;3.58;3.20;;;;;;;;;;5017814;28;20038;-72
2022/07/18 09:24:21;;;;;;;4.40;3.25;;;;;;;;;;5017122;28;20416;-72
2022/07/18 09:26:49;;;;;;;4.43;3.13;;;;;;;;;;5017291;28;20132;-72
2022/07/18 09:29:15;;;;;;;5.00;2.97;;;;;;;;;;5016814;28;20064;-71
2022/07/18 09:32:01;;;;;;;3.58;3.13;;;;;;;;;;5016398;28;20053;-73
2022/07/18 09:34:34;;;;;;;7.72;3.72;;;;;;;;;;5016275;28;20042;-71
2022/07/18 09:37:00;;;;;;;4.03;3.65;;;;;;;;;;4999272;28;20050;-72
2022/07/18 09:39:29;;;;;;;3.80;3.50;;;;;;;;;;4998512;28;20033;-72
2022/07/18 09:42:23;;;;;;;4.63;3.13;;;;;;;;;;5016938;28;20045;-72
2022/07/18 09:44:59;;;;;;;6.97;3.63;;;;;;;;;;5016997;28;20092;-72
2022/07/18 09:47:26;;;;;;;6.15;3.70;;;;;;;;;;5016478;28;20058;-73
2022/07/18 09:49:52;;;;;;;5.50;3.40;;;;;;;;;;5017171;28;20045;-71
2022/07/18 09:52:19;;;;;;;7.72;3.05;;;;;;;;;;5016557;28;20073;-72
2022/07/18 09:54:45;;;;;;;3.90;3.17;;;;;;;;;;5016267;28;20046;-73
2022/07/18 09:57:23;;;;;;;7.70;3.50;;;;;;;;;;5017092;28;20048;-72
2022/07/18 09:59:49;;;;;;;10.57;3.78;;;;;;;;;;5016327;28;20132;-72
2022/07/18 10:02:16;;;;;;;8.35;3.65;;;;;;;;;;5016308;28;20042;-72
2022/07/18 10:04:42;;;;;;;7.95;3.50;;;;;;;;;;5016172;28;20501;-72
2022/07/18 10:07:08;;;;;;;11.63;3.63;;;;;;;;;;5016968;28;20089;-72
2022/07/18 10:09:35;;;;;;;5.85;3.75;;;;;;;;;;4999136;28;20049;-73
2022/07/18 10:12:01;;;;;;;10.77;3.83;;;;;;;;;;4997985;28;20551;-73
2022/07/18 10:14:27;;;;;;;5.05;3.30;;;;;;;;;;4995838;28;20046;-73
2022/07/18 10:16:54;;;;;;;7.30;3.70;;;;;;;;;;5015951;28;20457;-73
2022/07/18 10:19:21;;;;;;;4.28;3.42;;;;;;;;;;5015954;28;20384;-73
2022/07/18 10:21:49;;;;;;;4.70;3.50;;;;;;;;;;5016960;28;20034;-72
2022/07/18 10:24:17;;;;;;;6.03;3.38;;;;;;;;;;5012229;28;20053;-72
2022/07/18 10:26:44;;;;;;;3.58;3.28;;;;;;;;;;5013960;28;20053;-73
2022/07/18 10:29:10;;;;;;;10.25;3.92;;;;;;;;;;5015622;28;20038;-73
2022/07/18 10:31:37;;;;;;;4.93;3.70;;;;;;;;;;4998547;28;20042;-72
2022/07/18 10:34:06;;;;;;;6.63;3.80;;;;;;;;;;5014783;28;20061;-73
2022/07/18 10:36:33;;;;;;;6.50;3.50;;;;;;;;;;5013782;28;20065;-72
2022/07/18 10:39:10;;;;;;;11.63;4.00;;;;;;;;;;5013920;28;20057;-72
2022/07/18 10:41:40;;;;;;;4.95;3.72;;;;;;;;;;5013659;28;20496;-72
2022/07/18 10:44:28;;;;;;;5.88;3.40;;;;;;;;;;5012543;28;20052;-72
2022/07/18 10:47:10;;;;;;;4.43;3.50;;;;;;;;;;5003828;28;20065;-72
2022/07/18 10:49:48;;;;;;;8.32;3.33;;;;;;;;;;5012993;28;20061;-72
2022/07/18 10:52:26;;;;;;;4.38;3.25;;;;;;;;;;5012969;28;20042;-72
2022/07/18 10:57:28;;;;;;;4.15;3.40;;;;;;;;;;5002290;28;20559;-72
2022/07/18 11:00:03;;;;;;;6.53;3.40;;;;;;;;;;5008831;28;20081;-72
2022/07/18 11:02:37;;;;;;;3.53;3.10;;;;;;;;;;4993816;28;20043;-72
2022/07/18 11:05:04;;;;;;;7.53;3.38;;;;;;;;;;5022497;28;20041;-72
2022/07/18 11:07:30;;;;;;;6.43;3.17;;;;;;;;;;5007904;28;20033;-72
2022/07/18 11:09:56;;;;;;;6.05;3.40;;;;;;;;;;5002707;28;20042;-72
2022/07/18 11:12:32;;;;;;;9.30;3.28;;;;;;;;;;4995724;28;20045;-72
2022/07/18 11:14:59;;;;;;;5.20;3.13;;;;;;;;;;4998436;28;20113;-72
2022/07/18 11:17:44;;;;;;;5.82;3.03;;;;;;;;;;5006105;28;20048;-72
2022/07/18 11:20:43;;;;;;;10.88;3.40;;;;;;;;;;5010311;28;20129;-73
2022/07/18 11:23:18;;;;;;;11.65;3.85;;;;;;;;;;4971673;28;20095;-73
2022/07/18 11:25:44;;;;;;;12.52;3.20;;;;;;;;;;5027587;28;20112;-73
2022/07/18 11:28:11;;;;;;;5.55;3.08;;;;;;;;;;5034957;28;20124;-72
2022/07/18 11:30:38;;;;;;;6.75;2.97;;;;;;;;;;5007065;28;20035;-72
2022/07/18 11:33:05;;;;;;;7.22;3.47;;;;;;;;;;5014740;28;20038;-73
2022/07/18 11:35:31;;;;;;;7.88;3.25;;;;;;;;;;4997372;28;20073;-73
2022/07/18 11:37:57;;;;;;;3.55;3.25;;;;;;;;;;5015243;28;20049;-73
2022/07/18 11:40:23;;;;;;;4.25;2.95;;;;;;;;;;5015398;28;20053;-73
2022/07/18 11:42:49;;;;;;;3.13;2.83;;;;;;;;;;5035068;28;20040;-73
2022/07/18 11:45:17;;;;;;;3.10;2.90;;;;;;;;;;5034680;28;20056;-74
2022/07/18 11:47:50;;;;;;;5.43;2.90;;;;;;;;;;5028450;28;20142;-73
2022/07/18 11:50:17;;;;;;;3.00;2.80;;;;;;;;;;5016770;28;20041;-73
2022/07/18 11:52:44;;;;;;;10.00;3.20;;;;;;;;;;5034452;28;20124;-73
2022/07/18 11:55:14;;;;;;;9.45;3.20;;;;;;;;;;5034899;28;20057;-73
2022/07/18 11:57:40;;;;;;;3.63;2.72;;;;;;;;;;5017723;28;20037;-73
2022/07/18 12:00:17;;;;;;;7.65;3.17;;;;;;;;;;5017423;28;20090;-73
2022/07/18 12:03:02;;;;;;;4.32;3.00;;;;;;;;;;5013530;28;20046;-73
2022/07/18 12:05:32;;;;;;;4.97;3.20;;;;;;;;;;5013492;28;20037;-73
2022/07/18 12:07:58;;;;;;;5.55;3.20;;;;;;;;;;5013630;28;20096;-73
2022/07/18 12:10:24;;;;;;;8.68;3.25;;;;;;;;;;5012495;28;20046;-73
2022/07/18 12:12:51;;;;;;;5.47;2.80;;;;;;;;;;5012472;28;20120;-73
2022/07/18 12:15:17;;;;;;;9.82;3.45;;;;;;;;;;5011258;28;20515;-73
2022/07/18 12:17:47;;;;;;;6.20;2.90;;;;;;;;;;4995967;28;20128;-73
2022/07/18 12:20:13;;;;;;;;;;;;;;;;;;5012453;28;20061;-73
2022/07/18 12:23:01;;;;;;;8.00;3.38;;;;;;;;;;5013766;28;19925;-73
2022/07/18 12:25:40;;;;;;;11.82;3.45;;;;;;;;;;4999627;28;20100;-73
2022/07/18 12:28:13;;;;;;;7.85;3.50;;;;;;;;;;5013965;28;20111;-73
2022/07/18 12:30:39;;;;;;;7.18;3.30;;;;;;;;;;5013592;28;20057;-73
2022/07/18 12:33:09;;;;;;;4.63;3.30;;;;;;;;;;5013795;28;20193;-73
2022/07/18 12:35:36;;;;;;;8.75;3.55;;;;;;;;;;5012569;28;20049;-72
2022/07/18 12:38:07;;;;;;;6.15;3.70;;;;;;;;;;5014147;28;20096;-73
2022/07/18 12:40:53;;;;;;;6.93;3.75;;;;;;;;;;5013604;28;20108;-73
2022/07/18 12:43:25;;;;;;;6.25;3.60;;;;;;;;;;5013274;28;20061;-73
2022/07/18 12:45:51;;;;;;;3.88;3.47;;;;;;;;;;5017721;28;20132;-73
2022/07/18 12:48:17;;;;;;;5.88;3.60;;;;;;;;;;5013758;28;20053;-73
2022/07/18 12:50:47;;;;;;;6.80;3.55;;;;;;;;;;5010943;28;20038;-73
2022/07/18 12:53:13;;;;;;;5.03;3.40;;;;;;;;;;5012487;28;20045;-73
2022/07/18 12:55:40;;;;;;;11.48;3.85;;;;;;;;;;5008087;28;20140;-72
2022/07/18 12:58:06;;;;;;;7.97;4.18;;;;;;;;;;5022539;28;20038;-73
2022/07/18 13:00:33;;;;;;;5.72;3.25;;;;;;;;;;5011849;28;20119;-73
2022/07/18 13:02:59;;;;;;;7.45;3.63;;;;;;;;;;5014174;28;20062;-73
2022/07/18 13:05:26;;;;;;;10.82;4.18;;;;;;;;;;5014326;28;20046;-73
2022/07/18 13:07:52;;;;;;;7.65;3.80;;;;;;;;;;5014127;28;20045;-73
2022/07/18 13:10:19;;;;;;;5.35;3.63;;;;;;;;;;5013962;28;20038;-73
2022/07/18 13:12:45;;;;;;;7.85;3.90;;;;;;;;;;5014741;28;20034;-73
2022/07/18 13:15:11;;;;;;;10.77;4.15;;;;;;;;;;5017409;28;20488;-73
2022/07/18 13:17:37;;;;;;;5.57;3.55;;;;;;;;;;5017726;28;20501;-73
2022/07/18 13:20:03;;;;;;;7.85;3.25;;;;;;;;;;5017794;28;20049;-73
2022/07/18 13:22:37;;;;;;;10.48;3.78;;;;;;;;;;5017279;28;20387;-73
2022/07/18 13:25:03;;;;;;;7.28;3.90;;;;;;;;;;5017939;28;20132;-73
2022/07/18 13:27:30;;;;;;;20.58;3.80;;;;;;;;;;5017390;28;20069;-73
2022/07/18 13:29:56;;;;;;;24.08;3.83;;;;;;;;;;5017458;28;20045;-73
2022/07/18 13:32:22;;;;;;;8.02;4.07;;;;;;;;;;5017610;28;20084;-73
2022/07/18 13:34:49;;;;;;;5.13;3.65;;;;;;;;;;4999719;28;20082;-73
2022/07/18 13:37:15;;;;;;;6.80;3.65;;;;;;;;;;5017241;28;20048;-73
2022/07/18 13:39:41;;;;;;;7.40;3.70;;;;;;;;;;5017399;28;20050;-73
2022/07/18 13:42:07;;;;;;;7.07;3.45;;;;;;;;;;5017239;28;20042;-73
2022/07/18 13:44:33;;;;;;;3.92;3.55;;;;;;;;;;5016913;28;20455;-73
2022/07/18 13:46:59;;;;;;;7.90;3.78;;;;;;;;;;5017669;28;20060;-73
2022/07/18 13:49:25;;;;;;;3.92;3.63;;;;;;;;;;5017422;28;20068;-73
2022/07/18 13:51:52;;;;;;;7.65;4.38;;;;;;;;;;5017522;28;20048;-73
2022/07/18 13:54:18;;;;;;;10.05;4.75;;;;;;;;;;5000087;28;20504;-73
2022/07/18 13:56:45;;;;;;;5.95;4.38;;;;;;;;;;4999830;28;20041;-73
2022/07/18 13:59:11;;;;;;;5.40;3.95;;;;;;;;;;5004958;28;20534;-74
2022/07/18 14:01:37;;;;;;;4.95;4.45;;;;;;;;;;5036280;28;20115;-74
2022/07/18 14:04:03;;;;;;;5.32;4.45;;;;;;;;;;5037004;28;20053;-73
2022/07/18 14:06:29;;;;;;;13.10;5.07;;;;;;;;;;5036800;28;20042;-73
2022/07/18 14:08:56;;;;;;;6.88;4.22;;;;;;;;;;5036996;28;20510;-74
2022/07/18 14:11:22;;;;;;;6.00;4.40;;;;;;;;;;5036982;28;20052;-73
2022/07/18 14:13:48;;;;;;;7.30;4.75;;;;;;;;;;5036786;28;20072;-72
2022/07/18 14:16:14;;;;;;;5.80;5.30;;;;;;;;;;5036910;28;20045;-73
2022/07/18 14:18:41;;;;;;;6.75;5.53;;;;;;;;;;5036802;28;20056;-73
2022/07/18 14:21:07;;;;;;;7.13;6.00;;;;;;;;;;5037273;28;20067;-72
2022/07/18 14:23:33;;;;;;;7.38;5.90;;;;;;;;;;5036395;28;20053;-72
2022/07/18 14:25:59;;;;;;;6.72;6.03;;;;;;;;;;5036701;28;20067;-72
2022/07/18 14:28:25;;;;;;;7.28;6.60;;;;;;;;;;5036226;28;20124;-72
2022/07/18 14:30:51;;;;;;;9.65;6.38;;;;;;;;;;5036639;28;20041;-72
2022/07/18 14:33:18;;;;;;;6.25;5.68;;;;;;;;;;5019062;28;20052;-72
2022/07/18 14:35:44;;;;;;;6.35;5.75;;;;;;;;;;5018622;28;20407;-73
2022/07/18 14:38:13;;;;;;;6.45;5.68;;;;;;;;;;5036221;28;20044;-72
2022/07/18 14:40:39;;;;;;;6.45;5.88;;;;;;;;;;5036123;28;20484;-72
2022/07/18 14:43:05;;;;;;;6.75;6.03;;;;;;;;;;5036914;28;20476;-72
2022/07/18 14:45:31;;;;;;;6.57;5.88;;;;;;;;;;5035767;28;20172;-73
2022/07/18 14:47:57;;;;;;;7.80;6.20;;;;;;;;;;5035983;28;20047;-73
2022/07/18 14:50:24;;;;;;;6.93;6.32;;;;;;;;;;5036029;28;20041;-73
2022/07/18 14:52:50;;;;;;;6.90;6.20;;;;;;;;;;5035959;28;20048;-72
2022/07/18 14:55:16;;;;;;;7.60;5.90;;;;;;;;;;5036063;28;20523;-72
2022/07/18 14:57:42;;;;;;;6.22;5.72;;;;;;;;;;5035492;28;20041;-72
2022/07/18 15:00:09;;;;;;;6.75;6.15;;;;;;;;;;5035669;28;20041;-73
2022/07/18 15:02:35;;;;;;;6.78;6.05;;;;;;;;;;5036154;28;20492;-72
2022/07/18 15:05:02;;;;;;;10.52;6.90;;;;;;;;;;5036047;28;20067;-72
2022/07/18 15:07:29;;;;;;;6.97;6.35;;;;;;;;;;5035648;28;20119;-72
2022/07/18 15:09:55;;;;;;;9.60;6.28;;;;;;;;;;5035219;28;20403;-72
2022/07/18 15:12:21;;;;;;;7.18;6.00;;;;;;;;;;5035463;28;20096;-72
2022/07/18 15:14:47;;;;;;;6.13;5.63;;;;;;;;;;5035179;28;20059;-72
2022/07/18 15:17:13;;;;;;;6.38;5.70;;;;;;;;;;5035085;28;20045;-72
2022/07/18 15:19:39;;;;;;;7.40;5.88;;;;;;;;;;5035039;28;20052;-72
2022/07/18 15:22:06;;;;;;;6.40;5.80;;;;;;;;;;5035328;28;20040;-72
2022/07/18 15:24:33;;;;;;;6.95;5.65;;;;;;;;;;5035091;28;20056;-72
2022/07/18 15:26:59;;;;;;;5.82;5.35;;;;;;;;;;5035167;28;20037;-72
2022/07/18 15:29:25;;;;;;;6.00;5.50;;;;;;;;;;5034657;28;20034;-72
2022/07/18 15:31:51;;;;;;;6.35;5.10;;;;;;;;;;5018016;28;20488;-72
2022/07/18 15:34:17;;;;;;;6.13;5.53;;;;;;;;;;5035203;28;20092;-72
2022/07/18 15:36:43;;;;;;;5.68;5.18;;;;;;;;;;5034169;28;20045;-72
2022/07/18 15:39:09;;;;;;;12.13;5.28;;;;;;;;;;5034713;28;20045;-72
2022/07/18 15:41:36;;;;;;;5.78;5.25;;;;;;;;;;5034771;28;20124;-72
2022/07/18 15:44:02;;;;;;;6.18;5.57;;;;;;;;;;5034865;28;20049;-72
2022/07/18 15:46:28;;;;;;;6.93;5.05;;;;;;;;;;5034373;28;20136;-72
2022/07/18 15:48:54;;;;;;;5.40;4.90;;;;;;;;;;5034487;28;20125;-72
2022/07/18 15:51:20;;;;;;;6.70;5.22;;;;;;;;;;5034802;28;20040;-72
2022/07/18 15:53:47;;;;;;;6.40;5.40;;;;;;;;;;5034003;28;20120;-72
2022/07/18 15:56:13;;;;;;;5.63;5.05;;;;;;;;;;5034126;28;20099;-72
2022/07/18 15:58:39;;;;;;;6.95;5.22;;;;;;;;;;5034221;28;20038;-72
2022/07/18 16:01:05;;;;;;;6.85;4.93;;;;;;;;;;5034176;28;20052;-72
2022/07/18 16:03:31;;;;;;;5.35;4.95;;;;;;;;;;5034009;28;20046;-72
2022/07/18 16:05:57;;;;;;;5.72;5.20;;;;;;;;;;5034200;28;20033;-72
2022/07/18 16:08:29;;;;;;;11.32;5.40;;;;;;;;;;5033974;28;20114;-72
2022/07/18 16:10:58;;;;;;;5.55;5.05;;;;;;;;;;5033917;28;20045;-72
2022/07/18 16:13:25;;;;;;;6.20;5.60;;;;;;;;;;5034301;28;20044;-72
2022/07/18 16:15:51;;;;;;;5.25;4.80;;;;;;;;;;5034441;28;20048;-73
2022/07/18 16:18:17;;;;;;;6.03;5.43;;;;;;;;;;5034225;28;20042;-72
2022/07/18 16:20:43;;;;;;;5.50;4.93;;;;;;;;;;5034154;28;20403;-72
2022/07/18 16:23:09;;;;;;;4.95;4.20;;;;;;;;;;5034178;28;20373;-72
2022/07/18 16:25:37;;;;;;;8.60;4.50;;;;;;;;;;5016188;28;20043;-72
2022/07/18 16:28:03;;;;;;;5.47;4.28;;;;;;;;;;5034167;28;20106;-72
2022/07/18 16:30:30;;;;;;;7.25;5.00;;;;;;;;;;5033746;28;20079;-72
2022/07/18 16:32:56;;;;;;;5.63;4.78;;;;;;;;;;5034024;28;20124;-72
2022/07/18 16:35:22;;;;;;;7.80;4.60;;;;;;;;;;5034415;28;20049;-72
2022/07/18 16:37:48;;;;;;;5.05;4.65;;;;;;;;;;5034594;28;20511;-72
2022/07/18 16:40:15;;;;;;;7.70;4.30;;;;;;;;;;5034297;28;20492;-72
2022/07/18 16:42:41;;;;;;;4.43;4.03;;;;;;;;;;5034209;28;20052;-72
2022/07/18 16:45:08;;;;;;;7.60;4.38;;;;;;;;;;5033947;28;20042;-73
2022/07/18 16:47:34;;;;;;;4.60;4.13;;;;;;;;;;5034710;28;20045;-72
2022/07/18 16:50:00;;;;;;;6.95;4.30;;;;;;;;;;5038168;28;20045;-72
2022/07/18 16:52:27;;;;;;;4.43;3.60;;;;;;;;;;5038027;28;20029;-71
2022/07/18 16:54:53;;;;;;;4.72;3.65;;;;;;;;;;5014505;28;20440;-74
2022/07/18 16:57:19;;;;;;;5.15;3.63;;;;;;;;;;5017301;28;20049;-71
2022/07/18 16:59:46;;;;;;;4.82;3.53;;;;;;;;;;5017850;28;20053;-71
2022/07/18 17:02:12;;;;;;;3.58;3.28;;;;;;;;;;5017178;28;20483;-71
2022/07/18 17:04:39;;;;;;;3.70;3.20;;;;;;;;;;5013692;28;20089;-75
2022/07/18 17:07:06;;;;;;;3.10;2.90;;;;;;;;;;5015193;28;20033;-72
2022/07/18 17:09:32;;;;;;;3.45;3.00;;;;;;;;;;5016752;28;20400;-78
2022/07/18 17:11:59;;;;;;;3.67;3.03;;;;;;;;;;5017116;28;20065;-72
2022/07/18 17:14:25;;;;;;;2.67;2.47;;;;;;;;;;5015452;28;20614;-72
2022/07/18 17:16:53;;;;;;;5.85;2.47;;;;;;;;;;5017897;28;20038;-76
2022/07/18 17:19:20;;;;;;;2.22;2.08;;;;;;;;;;5017489;28;20038;-73
2022/07/18 17:21:46;;;;;;;5.63;2.40;;;;;;;;;;5016800;28;20042;-72
2022/07/18 17:24:13;;;;;;;4.57;2.22;;;;;;;;;;5016596;28;20061;-72
2022/07/18 17:26:40;;;;;;;3.17;2.20;;;;;;;;;;5024514;28;20057;-73
2022/07/18 17:29:06;;;;;;;2.42;2.22;;;;;;;;;;5027741;28;20111;-72
2022/07/18 17:31:32;;;;;;;5.22;2.45;;;;;;;;;;5015364;28;20046;-72
2022/07/18 17:34:00;;;;;;;5.22;2.28;;;;;;;;;;5017656;28;20056;-72
2022/07/18 17:36:29;;;;;;;8.30;3.90;;;;;;;;;;5017045;28;20049;-72
2022/07/18 17:38:55;;;;;;;19.83;9.20;;;;;;;;;;5017316;28;20044;-72
2022/07/18 17:41:21;;;;;;;8.20;2.88;;;;;;;;;;5016178;28;20129;-72
2022/07/18 17:43:49;;;;;;;9.65;3.45;;;;;;;;;;5016916;28;20509;-74
2022/07/18 17:46:16;;;;;;;10.48;2.75;;;;;;;;;;5016914;28;20056;-74
2022/07/18 17:48:42;;;;;;;8.07;3.13;;;;;;;;;;5017183;28;20038;-74
2022/07/18 17:51:09;;;;;;;9.30;3.75;;;;;;;;;;5014342;28;20046;-73
2022/07/18 17:53:36;;;;;;;5.43;3.10;;;;;;;;;;5016612;28;20419;-74
2022/07/18 17:56:02;;;;;;;2.90;2.70;;;;;;;;;;5011990;28;20516;-73
2022/07/18 17:58:28;;;;;;;2.60;2.40;;;;;;;;;;5014666;28;20038;-72
2022/07/18 18:00:55;;;;;;;13.88;7.80;;;;;;;;;;5015594;28;20046;-72
2022/07/18 18:03:21;;;;;;;66.30;37.47;;;;;;;;;;5016675;28;20037;-72
2022/07/18 18:05:48;;;;;;;5.60;3.63;;;;;;;;;;5016690;28;20128;-72
2022/07/18 18:08:19;;;;;;;7.22;2.60;;;;;;;;;;5015663;28;20474;-72
2022/07/18 18:10:45;;;;;;;3.60;2.83;;;;;;;;;;4997142;28;20045;-72
2022/07/18 18:13:11;;;;;;;5.60;2.42;;;;;;;;;;5001716;28;20038;-72
2022/07/18 18:15:38;;;;;;;8.82;4.50;;;;;;;;;;5015625;28;20054;-72
2022/07/18 18:18:05;;;;;;;19.75;3.55;;;;;;;;;;5015616;28;20045;-73
2022/07/18 18:20:32;;;;;;;8.30;3.00;;;;;;;;;;5014720;28;20061;-71
2022/07/18 18:22:58;;;;;;;10.05;3.92;;;;;;;;;;5015724;28;20041;-72
2022/07/18 18:25:24;;;;;;;10.45;3.40;;;;;;;;;;5014678;28;20046;-71